Latest Weather Observations for Lord Howe Island

IDN60801

Issued at 10:02 pm EST Thursday 25 May 2017 (issued every 30 minutes, with the page automatically refreshed every 10 minutes)

About weather observations | Map of weather stations | Latest weather observations for NSW | Other Formats
Station Details ID: 200839 Name: LORD HOWE ISLAND AERO Lat: -31.54 Lon: 159.08 Height: 5.0 m
Data from the previous 72 hours. | See also: Recent months at Lord Howe Island
Date/Time
EST
Temp
°C
App
Temp
°C
Dew
Point
°C
Rel
Hum
%
Delta-T
°C
Wind Press
QNH
hPa
Press
MSL
hPa
Rain since
9am
mm
Dir  Spd
km/h
Gust
km/h
Spd
kts
Gust
kts
25/10:00pm 19.0 17.1 13.0 68 3.4 SSW 15 24 8 13 1017.5 - 0.4
25/09:30pm 19.1 17.0 13.5 70 3.2 SW 17 26 9 14 1017.6 - 0.4
25/09:00pm 18.9 16.6 13.1 69 3.3 SSW 17 28 9 15 1017.5 - 0.4
25/08:30pm 19.1 16.7 12.6 66 3.6 SW 17 28 9 15 1017.5 1017.5 0.4
25/08:00pm 18.8 17.6 13.9 73 2.8 SSW 13 22 7 12 1017.3 - 0.4
25/07:30pm 18.7 17.4 13.6 72 2.9 SSW 13 20 7 11 1017.2 - 0.4
25/07:00pm 19.0 16.6 13.8 72 3.0 SSW 19 24 10 13 1017.0 - 0.4
25/06:30pm 18.5 17.1 13.4 72 2.9 SSW 13 20 7 11 1016.8 - 0.4
25/06:00pm 18.5 17.9 14.6 78 2.3 SSW 11 19 6 10 1016.6 - 0.4
25/05:30pm 18.2 17.0 13.9 76 2.5 SSW 13 20 7 11 1016.4 1016.4 0.4
25/05:00pm 18.5 16.4 13.6 73 2.8 SSW 17 24 9 13 1016.2 - 0.4
25/04:30pm 18.1 15.9 13.2 73 2.8 SSW 17 24 9 13 1015.8 - 0.4
25/04:00pm 17.3 13.7 13.2 77 2.3 SW 24 39 13 21 1015.7 - 0.4
25/03:30pm 19.4 16.5 12.9 66 3.7 SSW 20 35 11 19 1015.4 - 0.0
25/03:00pm 19.5 15.9 13.0 66 3.7 SW 24 33 13 18 1015.2 - 0.0
25/02:30pm 20.4 18.0 13.8 66 3.8 SSW 19 32 10 17 1015.2 1015.2 0.0
25/02:00pm 19.8 16.7 13.5 67 3.6 SW 22 37 12 20 1015.2 - 0.0
25/01:30pm 20.4 16.8 13.1 63 4.2 SW 24 32 13 17 1015.0 - 0.0
25/01:00pm 20.6 17.4 11.8 57 4.9 SW 20 32 11 17 1015.1 - 0.0
25/12:30pm 20.9 17.5 13.8 64 4.1 SW 24 32 13 17 1015.3 - 0.0
25/12:00pm 20.6 17.9 14.5 68 3.6 SW 22 32 12 17 1015.5 - 0.0
25/11:30am 20.5 17.6 13.9 66 3.8 SW 22 32 12 17 1015.8 1015.8 0.0
25/11:00am 20.3 17.7 13.7 66 3.8 SW 20 33 11 18 1015.9 - 0.0
25/10:30am 20.4 18.1 14.7 70 3.3 SW 20 32 11 17 1016.1 - 0.0
25/10:00am 20.1 17.2 14.0 68 3.5 SW 22 32 12 17 1016.1 - 0.0
25/09:30am 20.1 17.3 13.1 64 4.0 SW 20 28 11 15 1016.1 - 0.0
25/09:00am 19.6 16.3 14.0 70 3.2 SW 24 33 13 18 1016.3 - 0.0
25/08:30am 19.9 17.3 13.8 68 3.5 SW 20 30 11 16 1016.1 1016.1 14.2
25/08:00am 19.6 17.1 13.5 68 3.5 SW 19 28 10 15 1015.8 - 14.2
25/07:30am 19.4 17.1 13.1 67 3.6 SW 17 26 9 14 1015.7 - 14.2
25/07:00am 19.3 17.0 14.1 72 3.0 SW 19 32 10 17 1015.4 - 14.2
25/06:30am 18.7 16.4 12.9 69 3.3 SSW 17 24 9 13 1015.0 - 14.2
25/06:00am 18.6 15.8 12.6 68 3.4 SSW 19 32 10 17 1014.9 - 14.2
25/05:30am 18.4 15.5 12.4 68 3.3 SSW 19 30 10 16 1014.5 1014.5 14.2
25/05:00am 18.7 17.0 13.6 72 2.9 SSW 15 26 8 14 1014.2 - 14.2
25/04:30am 17.5 17.0 15.0 85 1.5 SSW 11 17 6 9 1014.0 - 14.2
25/04:00am 17.3 16.8 14.9 86 1.4 SSW 11 17 6 9 1014.0 - 14.2
25/03:30am 17.7 16.9 15.0 84 1.6 SSW 13 17 7 9 1013.9 - 14.2
25/03:00am 18.0 17.3 16.3 90 1.0 SW 15 22 8 12 1013.9 - 14.2
25/02:30am 18.1 17.6 16.9 93 0.7 SW 15 24 8 13 1013.8 1013.8 14.2
25/02:00am 17.9 17.7 17.7 99 0.1 SW 15 20 8 11 1013.7 - 14.2
25/01:56am 17.9 17.7 17.7 99 0.1 SW 15 22 8 12 1013.8 - 14.2
25/01:30am 17.4 17.8 17.2 99 0.1 SSW 11 17 6 9 1014.2 - 14.2
25/01:22am 17.6 18.1 17.4 99 0.1 SSW 11 15 6 8 1014.3 - 14.2
25/01:00am 17.0 14.8 16.8 99 0.1 WSW 24 43 13 23 1014.7 - 14.2
25/12:38am 19.2 16.4 17.3 89 1.2 WSW 28 52 15 28 1014.4 - 3.6
25/12:37am 19.1 19.7 16.7 86 1.4 NW 9 26 5 14 1014.0 - 3.6
25/12:30am 19.6 20.0 16.4 82 1.9 NNW 9 15 5 8 1013.8 - 1.0
25/12:00am 20.0 20.3 16.0 78 2.4 WNW 9 15 5 8 1014.5 - 0.0
 
Date/Time
EST
Temp
°C
App
Temp
°C
Dew
Point
°C
Rel
Hum
%
Delta-T
°C
Wind Press
QNH
hPa
Press
MSL
hPa
Rain since
9am
mm
Dir  Spd
km/h
Gust
km/h
Spd
kts
Gust
kts
24/11:30pm 19.8 20.1 15.9 78 2.3 WNW 9 15 5 8 1014.4 1014.4 0.0
24/11:00pm 19.6 19.7 15.5 77 2.4 WNW 9 17 5 9 1014.7 - 0.0
24/10:30pm 19.2 18.8 15.1 77 2.4 NW 11 17 6 9 1015.0 - 0.0
24/10:00pm 18.6 18.6 14.3 76 2.5 NW 7 17 4 9 1015.1 - 0.0
24/09:30pm 18.9 18.7 14.6 76 2.5 WNW 9 19 5 10 1015.1 - 0.0
24/09:00pm 18.4 18.1 14.5 78 2.3 NNW 9 13 5 7 1014.7 - 0.0
24/08:30pm 18.6 18.6 14.1 75 2.6 N 7 11 4 6 1014.8 1014.8 0.0
24/08:00pm 18.9 17.4 14.2 74 2.7 N 15 22 8 12 1014.8 - 0.0
24/07:30pm 18.7 17.0 14.6 77 2.4 N 17 20 9 11 1014.9 - 0.0
24/07:00pm 18.4 17.1 14.7 79 2.1 NNE 15 20 8 11 1015.1 - 0.0
24/06:30pm 18.3 17.7 15.7 85 1.5 N 13 17 7 9 1015.3 - 0.0
24/06:00pm 17.5 17.5 15.1 86 1.4 N 9 13 5 7 1015.4 - 0.0
24/05:30pm 17.0 18.1 14.6 86 1.4 NNE 2 7 1 4 1015.4 1015.4 0.0
24/05:00pm 17.0 18.4 14.5 85 1.4 CALM 0 0 0 0 1015.3 - 0.0
24/04:30pm 16.8 17.9 13.5 81 1.9 CALM 0 0 0 0 1015.3 - 0.0
24/04:00pm 18.3 18.2 13.8 75 2.6 N 7 11 4 6 1015.0 - 0.0
24/03:30pm 18.4 17.9 13.7 74 2.7 NNE 9 11 5 6 1015.0 - 0.0
24/03:00pm 19.6 19.2 14.0 70 3.2 NNE 9 11 5 6 1015.0 - 0.0
24/02:30pm 20.1 19.7 14.2 69 3.4 NNE 9 11 5 6 1015.0 1015.0 0.0
24/02:00pm 20.2 19.0 13.9 67 3.6 NNE 13 17 7 9 1015.0 - 0.0
24/01:30pm 20.1 19.7 15.1 73 2.9 NE 11 15 6 8 1015.5 - 0.0
24/01:00pm 19.3 19.1 14.6 74 2.7 NE 9 11 5 6 1015.8 - 0.0
24/12:30pm 20.2 20.4 14.8 71 3.2 NNE 7 9 4 5 1016.1 - 0.0
24/12:00pm 21.0 21.7 14.6 67 3.7 N 4 9 2 5 1016.7 - 0.0
24/11:30am 20.5 20.5 13.7 65 3.9 W 6 9 3 5 1017.3 1017.3 0.0
24/11:00am 20.2 20.1 13.9 67 3.6 WSW 7 11 4 6 1017.9 - 0.0
24/10:30am 19.2 19.1 13.8 71 3.1 W 7 9 4 5 1018.5 - 0.0
24/10:00am 19.8 19.4 14.0 69 3.3 WSW 9 11 5 6 1018.9 - 0.0
24/09:30am 20.0 20.1 14.4 70 3.3 WSW 7 9 4 5 1019.0 - 0.0
24/09:00am 19.8 20.0 14.2 70 3.2 W 6 7 3 4 1019.0 - 0.0
24/08:30am 19.3 21.1 15.4 78 2.3 CALM 0 0 0 0 1019.1 1019.1 0.0
24/08:00am 18.2 20.6 17.0 93 0.7 CALM 0 0 0 0 1019.0 - 0.0
24/07:30am 16.8 19.1 16.8 100 0.0 CALM 0 0 0 0 1018.9 - 0.0
24/07:00am 14.0 15.3 14.0 100 0.0 CALM 0 0 0 0 1018.8 - 0.0
24/06:56am 13.7 14.8 13.5 99 0.1 CALM 0 0 0 0 1018.8 - 0.0
24/06:41am 12.5 13.2 12.3 99 0.1 CALM 0 0 0 0 1018.7 - 0.0
24/06:30am 12.6 13.4 12.4 99 0.1 CALM 0 0 0 0 1018.6 - 0.0
24/06:20am 12.7 13.5 12.5 99 0.1 CALM 0 0 0 0 1018.6 - 0.0
24/06:01am 11.6 12.0 11.4 99 0.1 CALM 0 0 0 0 1018.5 - 0.0
24/06:00am 11.6 12.0 11.4 99 0.1 CALM 0 0 0 0 1018.4 - 0.0
24/05:30am 12.4 13.1 12.2 99 0.1 CALM 0 0 0 0 1018.1 1018.1 0.0
24/05:07am 12.3 12.9 12.0 98 0.2 CALM 0 0 0 0 1018.1 - 0.0
24/05:00am 12.4 13.1 12.1 98 0.2 CALM 0 0 0 0 1018.0 - 0.0
24/04:49am 12.3 12.9 11.8 97 0.3 CALM 0 0 0 0 1018.0 - 0.0
24/04:48am 12.4 13.0 11.9 97 0.3 CALM 0 0 0 0 1018.0 - 0.0
24/04:45am 12.5 13.1 12.0 97 0.3 CALM 0 0 0 0 1018.0 - 0.0
24/04:30am 12.5 13.0 11.7 95 0.4 CALM 0 0 0 0 1018.0 - 0.0
24/04:18am 12.5 13.0 11.6 94 0.5 CALM 0 0 0 0 1018.0 - 0.0
24/04:11am 12.5 13.0 11.6 94 0.5 CALM 0 0 0 0 1018.0 - 0.0
24/04:00am 12.8 13.3 11.5 92 0.7 CALM 0 0 0 0 1018.0 - 0.0
24/03:30am 13.2 13.7 11.6 90 0.9 CALM 0 0 0 0 1018.2 - 0.0
24/03:00am 14.1 14.6 11.6 85 1.3 CALM 0 0 0 0 1018.4 - 0.0
24/02:30am 17.5 17.3 14.6 83 1.7 SE 9 13 5 7 1018.4 1018.4 0.0
24/02:00am 13.7 13.4 12.6 93 0.6 ESE 6 9 3 5 1018.6 - 0.0
24/01:30am 13.2 13.7 11.6 90 0.9 CALM 0 0 0 0 1018.8 - 0.0
24/01:00am 14.4 15.2 12.4 88 1.1 CALM 0 0 0 0 1019.0 - 0.0
24/12:30am 15.5 16.2 12.3 81 1.7 CALM 0 6 0 3 1019.3 - 0.0
24/12:00am 17.9 16.9 13.4 75 2.5 SE 11 15 6 8 1019.5 - 0.0
 
Date/Time
EST
Temp
°C
App
Temp
°C
Dew
Point
°C
Rel
Hum
%
Delta-T
°C
Wind Press
QNH
hPa
Press
MSL
hPa
Rain since
9am
mm
Dir  Spd
km/h
Gust
km/h
Spd
kts
Gust
kts
23/11:30pm 18.5 17.6 13.8 74 2.7 SE 11 13 6 7 1019.7 1019.7 0.0
23/11:00pm 18.1 17.6 13.8 76 2.4 SE 9 11 5 6 1019.9 - 0.0
23/10:30pm 18.5 18.1 14.0 75 2.6 SE 9 11 5 6 1020.2 - 0.0
23/10:00pm 18.4 18.0 14.1 76 2.5 SE 9 11 5 6 1020.3 - 0.0
23/09:30pm 18.7 18.5 14.6 77 2.4 SE 9 13 5 7 1020.2 - 0.0
23/09:00pm 18.6 18.3 14.5 77 2.4 SE 9 13 5 7 1020.2 - 0.0
23/08:30pm 18.8 18.6 14.7 77 2.4 SE 9 13 5 7 1020.2 1020.2 0.0
23/08:00pm 18.8 18.2 14.7 77 2.4 SE 11 13 6 7 1020.2 - 0.0
23/07:30pm 18.8 18.7 14.9 78 2.3 SE 9 15 5 8 1020.2 - 0.0
23/07:00pm 18.8 18.7 14.9 78 2.3 ESE 9 15 5 8 1020.1 - 0.0
23/06:30pm 18.9 18.4 15.0 78 2.3 SE 11 15 6 8 1020.0 - 0.0
23/06:00pm 19.0 19.0 15.3 79 2.2 ESE 9 13 5 7 1019.8 - 0.0
23/05:30pm 18.9 18.1 15.0 78 2.3 ESE 13 24 7 13 1019.6 1019.6 0.0
23/05:00pm 19.0 17.8 15.1 78 2.3 SE 15 22 8 12 1019.4 - 0.0
23/04:30pm 19.0 18.2 15.1 78 2.3 ESE 13 17 7 9 1019.3 - 0.0
23/04:00pm 19.9 19.4 14.9 73 2.9 ESE 11 20 6 11 1019.1 - 0.0
23/03:30pm 20.4 19.6 15.2 72 3.1 SE 13 20 7 11 1018.9 - 0.0
23/03:00pm 21.0 20.3 15.5 71 3.3 E 13 24 7 13 1018.9 - 0.0
23/02:30pm 21.0 20.5 15.8 72 3.1 E 13 20 7 11 1018.9 1018.9 0.0
23/02:00pm 21.1 21.2 16.5 75 2.8 ESE 11 20 6 11 1019.1 - 0.0
23/01:30pm 21.4 21.0 16.1 72 3.2 E 13 19 7 10 1019.2 - 0.0
23/01:00pm 21.4 20.0 16.6 74 2.9 E 19 22 10 12 1019.2 - 0.0
23/12:30pm 22.3 22.8 16.6 70 3.5 N 9 15 5 8 1019.3 - 0.0
23/12:00pm 21.8 21.5 16.5 72 3.2 E 13 20 7 11 1019.7 - 0.0
23/11:30am 22.1 22.9 16.4 70 3.4 W 7 15 4 8 1020.1 1020.1 0.0
23/11:00am 21.7 22.4 16.2 71 3.3 WSW 7 9 4 5 1020.5 - 0.0
23/10:30am 20.9 21.2 16.1 74 2.9 SW 9 13 5 7 1021.1 - 0.0
23/10:00am 21.4 22.2 16.4 73 3.0 W 7 11 4 6 1021.4 - 0.0
23/09:30am 21.3 22.3 16.9 76 2.7 SSW 7 11 4 6 1021.7 - 0.0
23/09:00am 20.8 21.5 17.0 79 2.3 SSW 9 11 5 6 1021.8 - 0.0
23/08:30am 20.5 22.1 17.9 85 1.6 SW 6 9 3 5 1021.7 1021.7 3.2
23/08:00am 19.6 21.8 19.6 100 0.0 SSE 7 9 4 5 1021.7 - 3.2
23/07:30am 18.8 - 19.1 - - SW 6 9 3 5 1021.5 - 3.2
23/07:09am 16.5 - 16.7 - - CALM 0 0 0 0 1021.4 - 3.2
23/07:00am 16.0 - 16.2 - - CALM 0 0 0 0 1021.3 - 3.2
23/06:30am 14.7 - 14.9 - - CALM 0 0 0 0 1021.1 - 3.2
23/06:00am 15.1 - 15.3 - - CALM 0 0 0 0 1020.7 - 3.2
23/05:30am 15.0 15.9 15.0 100 0.0 E 4 7 2 4 1020.5 1020.5 3.2
23/05:12am 15.3 17.0 15.3 100 0.0 CALM 0 0 0 0 1020.4 - 3.2
23/05:00am 15.1 16.4 15.1 100 0.0 SW 2 6 1 3 1020.2 - 3.2
23/04:30am 16.4 18.2 16.4 100 0.0 S 2 7 1 4 1020.1 - 3.2
23/04:25am 15.8 17.7 15.8 100 0.0 CALM 0 6 0 3 1020.2 - 3.2
23/04:00am 15.4 17.2 15.4 100 0.0 CALM 0 0 0 0 1020.2 - 3.2
23/03:46am 15.6 17.4 15.6 100 0.0 CALM 0 0 0 0 1020.3 - 3.2
23/03:31am 15.8 17.7 15.8 100 0.0 CALM 0 0 0 0 1020.3 - 3.2
23/03:30am 15.7 17.6 15.7 100 0.0 CALM 0 0 0 0 1020.3 - 3.2
23/03:23am 15.8 17.7 15.8 100 0.0 CALM 0 0 0 0 1020.3 - 3.2
23/03:09am 15.4 17.2 15.4 100 0.0 CALM 0 0 0 0 1020.2 - 3.2
23/03:00am 15.6 17.1 15.6 100 0.0 SSW 2 7 1 4 1020.3 - 3.2
23/02:30am 16.9 17.9 16.9 100 0.0 S 7 9 4 5 1020.3 1020.3 3.2
23/02:12am 14.8 16.3 14.6 99 0.1 CALM 0 0 0 0 1020.5 - 3.2
23/02:00am 15.0 16.6 14.8 99 0.1 CALM 0 0 0 0 1020.6 - 3.2
23/01:56am 14.6 16.0 14.4 99 0.1 CALM 0 0 0 0 1020.6 - 3.2
23/01:30am 15.3 15.6 15.1 99 0.1 SSW 7 9 4 5 1020.8 - 3.2
23/01:25am 15.8 16.5 15.6 99 0.1 SSW 6 9 3 5 1020.8 - 3.2
23/01:00am 14.3 15.5 13.8 97 0.3 CALM 0 0 0 0 1021.1 - 3.2
23/12:30am 15.2 16.7 14.6 96 0.3 CALM 0 0 0 0 1021.4 - 3.2
23/12:15am 14.4 15.5 13.6 95 0.4 CALM 0 0 0 0 1021.5 - 3.2
23/12:09am 14.5 15.7 13.7 95 0.4 CALM 0 0 0 0 1021.6 - 3.2
23/12:00am 15.1 16.1 14.3 95 0.5 S 2 6 1 3 1021.6 - 3.2
 
Date/Time
EST
Temp
°C
App
Temp
°C
Dew
Point
°C
Rel
Hum
%
Delta-T
°C
Wind Press
QNH
hPa
Press
MSL
hPa
Rain since
9am
mm
Dir  Spd
km/h
Gust
km/h
Spd
kts
Gust
kts
22/11:30pm 15.1 16.5 14.3 95 0.5 CALM 0 0 0 0 1021.8 1021.8 3.2
22/11:11pm 15.7 17.3 14.9 95 0.5 CALM 0 0 0 0 1021.9 - 3.2
22/11:08pm 15.7 17.3 14.9 95 0.5 CALM 0 0 0 0 1021.9 - 3.2
22/11:01pm 15.3 16.7 14.3 94 0.6 CALM 0 0 0 0 1021.9 - 3.2
22/11:00pm 15.2 16.5 14.2 94 0.6 CALM 0 0 0 0 1021.9 - 3.2
22/10:40pm 15.1 16.4 14.0 93 0.6 CALM 0 0 0 0 1021.8 - 3.2
22/10:30pm 16.2 17.5 15.2 94 0.6 SSW 2 6 1 3 1021.8 - 3.2
22/10:00pm 17.0 17.8 15.9 93 0.6 SSW 6 7 3 4 1022.0 - 3.2

Other Formats:

Comma delimited format used in spreadsheet applications
http://www.bom.gov.au/fwo/IDN60801/IDN60801.94995.axf

JavaScript Object Notation format (JSON) in row-major order
http://www.bom.gov.au/fwo/IDN60801/IDN60801.94995.json